Time;durP1;ratioP1;P1;durP2;ratioP2;P2;SDS_P1;SDS_P2;PMS_P1;PMS_P2;Temp;Humidity;BMP_temperature;BMP_pressure;BME280_temperature;BME280_humidity;BME280_pressure;Samples;Min_cycle;Max_cycle;Signal;HPM_P1;HPM_P2
2022/03/13 00:02:08;;;;;;;7.13;4.00;;;-1.20;54.60;;;;;;5126720;27;21053;-57
2022/03/13 00:04:49;;;;;;;4.47;4.07;;;-1.20;54.70;;;;;;5086003;27;20691;-59
2022/03/13 00:07:29;;;;;;;4.78;4.25;;;-1.20;54.60;;;;;;5158528;27;20552;-58
2022/03/13 00:10:10;;;;;;;4.22;3.92;;;-1.20;54.40;;;;;;5085388;28;21019;-58
2022/03/13 00:12:50;;;;;;;4.35;3.95;;;-1.20;54.60;;;;;;5127333;27;20536;-58
2022/03/13 00:15:37;;;;;;;4.22;3.90;;;-1.20;54.50;;;;;;5085909;27;20539;-58
2022/03/13 00:18:17;;;;;;;4.43;3.28;;;-1.30;54.90;;;;;;5086378;27;20556;-58
2022/03/13 00:20:57;;;;;;;5.30;3.45;;;-1.40;54.90;;;;;;5126813;27;20540;-59
2022/03/13 00:23:37;;;;;;;4.20;3.80;;;-1.40;55.20;;;;;;5147344;27;20942;-58
2022/03/13 00:26:18;;;;;;;4.68;3.58;;;-1.40;55.00;;;;;;5085814;27;20535;-59
2022/03/13 00:28:58;;;;;;;8.10;4.00;;;-1.40;54.60;;;;;;5086446;28;20664;-58
2022/03/13 00:31:38;;;;;;;3.83;3.53;;;-1.30;54.80;;;;;;5086039;28;20556;-58
2022/03/13 00:34:18;;;;;;;4.38;3.90;;;-1.30;54.70;;;;;;5086140;27;20539;-58
2022/03/13 00:36:58;;;;;;;4.05;3.70;;;-1.30;54.30;;;;;;5153931;27;20671;-58
2022/03/13 00:39:38;;;;;;;4.10;3.70;;;-1.20;53.90;;;;;;5085729;28;20660;-58
2022/03/13 00:42:18;;;;;;;5.03;4.53;;;-1.30;54.20;;;;;;5085647;27;20536;-58
2022/03/13 00:44:58;;;;;;;5.90;3.70;;;-1.30;54.00;;;;;;5086175;28;20672;-59
2022/03/13 00:47:37;;;;;;;10.25;4.03;;;-1.20;53.80;;;;;;5086397;27;21035;-58
2022/03/13 00:50:17;;;;;;;3.85;3.55;;;-1.20;53.80;;;;;;5085705;28;20668;-58
2022/03/13 00:52:57;;;;;;;3.72;3.22;;;-1.30;54.20;;;;;;5085963;28;20689;-59
2022/03/13 00:55:36;;;;;;;3.95;3.60;;;-1.30;54.20;;;;;;5085920;27;20667;-57
2022/03/13 00:58:16;;;;;;;6.05;3.05;;;-1.40;54.30;;;;;;5085796;27;20684;-59
2022/03/13 01:00:56;;;;;;;3.83;3.53;;;-1.40;54.80;;;;;;5085292;27;20547;-59
2022/03/13 01:03:51;;;;;;;3.88;3.47;;;-1.30;54.20;;;;;;5085884;27;20883;-57
2022/03/13 01:06:30;;;;;;;5.20;3.10;;;-1.50;54.40;;;;;;5106263;27;20527;-58
2022/03/13 01:09:10;;;;;;;4.30;3.90;;;-1.40;54.40;;;;;;5125956;27;21080;-58
2022/03/13 01:11:50;;;;;;;4.72;3.80;;;-1.40;54.40;;;;;;5085943;27;20921;-59
2022/03/13 01:14:33;;;;;;;4.25;3.85;;;-1.40;54.00;;;;;;5085909;27;20544;-58
2022/03/13 01:17:13;;;;;;;5.85;3.88;;;-1.40;53.90;;;;;;5085720;28;20675;-58
2022/03/13 01:19:52;;;;;;;4.25;3.95;;;-1.40;54.10;;;;;;5085718;28;20676;-58
2022/03/13 01:22:33;;;;;;;4.20;3.80;;;-1.40;53.90;;;;;;5086157;27;20553;-59
2022/03/13 01:25:12;;;;;;;5.28;4.15;;;-1.30;54.00;;;;;;5106378;27;20948;-58
2022/03/13 01:27:52;;;;;;;3.85;3.55;;;-1.30;53.50;;;;;;5086012;27;21228;-59
2022/03/13 01:30:32;;;;;;;3.80;3.50;;;-1.30;53.80;;;;;;5086226;27;21087;-59
2022/03/13 01:33:12;;;;;;;3.75;3.45;;;-1.40;54.10;;;;;;5086639;28;20660;-58
2022/03/13 01:35:51;;;;;;;5.05;3.55;;;-1.40;54.10;;;;;;5107017;27;20661;-59
2022/03/13 01:38:34;;;;;;;4.05;3.65;;;-1.40;53.90;;;;;;5147507;27;20554;-58
2022/03/13 01:41:13;;;;;;;3.95;3.55;;;-1.50;54.20;;;;;;5106735;27;20662;-58
2022/03/13 01:43:53;;;;;;;3.90;3.50;;;-1.60;54.40;;;;;;5086159;27;20537;-58
2022/03/13 01:46:33;;;;;;;3.78;3.45;;;-1.60;54.20;;;;;;5106432;27;20980;-58
2022/03/13 01:49:12;;;;;;;3.85;3.55;;;-1.60;54.60;;;;;;5147380;27;21034;-59
2022/03/13 01:51:52;;;;;;;4.93;3.90;;;-1.60;54.50;;;;;;5168328;27;20585;-59
2022/03/13 01:54:32;;;;;;;4.30;3.90;;;-1.60;54.40;;;;;;5086014;27;20531;-58
2022/03/13 01:57:17;;;;;;;7.63;3.38;;;-1.70;55.10;;;;;;5106314;27;21148;-58
2022/03/13 01:59:59;;;;;;;3.95;3.65;;;-1.60;54.80;;;;;;5147467;27;21030;-58
2022/03/13 02:02:44;;;;;;;4.45;4.05;;;-1.70;55.00;;;;;;5085929;28;20656;-59
2022/03/13 02:05:35;;;;;;;3.47;3.17;;;-1.80;55.20;;;;;;5147554;27;20653;-59
2022/03/13 02:08:19;;;;;;;4.95;3.45;;;-1.90;55.80;;;;;;5106322;27;20546;-58
2022/03/13 02:11:00;;;;;;;4.57;3.60;;;-2.00;56.50;;;;;;5146740;27;20542;-58
2022/03/13 02:13:39;;;;;;;3.70;3.40;;;-2.10;55.80;;;;;;5106280;27;20538;-58
2022/03/13 02:16:20;;;;;;;4.00;3.45;;;-2.00;56.00;;;;;;5148766;27;20657;-58
2022/03/13 02:19:01;;;;;;;3.67;3.38;;;-2.00;56.00;;;;;;5083994;27;20573;-58
2022/03/13 02:21:44;;;;;;;3.88;3.58;;;-2.00;55.90;;;;;;5085759;27;20535;-58
2022/03/13 02:24:25;;;;;;;3.95;3.65;;;-2.10;56.50;;;;;;5086417;28;20664;-59
2022/03/13 02:27:06;;;;;;;3.92;3.50;;;-2.30;56.30;;;;;;5106300;27;21436;-58
2022/03/13 02:29:46;;;;;;;4.57;3.92;;;-2.20;56.60;;;;;;5126731;27;20555;-57
2022/03/13 02:32:26;;;;;;;4.90;4.00;;;-2.20;56.40;;;;;;5085993;27;20536;-58
2022/03/13 02:35:06;;;;;;;4.15;3.80;;;-2.30;56.50;;;;;;5126721;27;20552;-58
2022/03/13 02:37:46;;;;;;;4.30;3.65;;;-2.40;57.60;;;;;;5161262;27;21097;-57
2022/03/13 02:40:27;;;;;;;5.13;3.88;;;-2.50;57.60;;;;;;5147305;27;20546;-58
2022/03/13 02:43:07;;;;;;;5.68;4.10;;;-2.40;57.60;;;;;;5106509;27;20541;-59
2022/03/13 02:45:47;;;;;;;3.92;3.63;;;-2.20;57.30;;;;;;5086245;28;20664;-58
2022/03/13 02:48:27;;;;;;;4.43;3.45;;;-2.20;56.90;;;;;;5166825;27;20552;-58
2022/03/13 02:51:06;;;;;;;4.55;3.95;;;-2.30;57.30;;;;;;5105950;27;20545;-59
2022/03/13 02:53:46;;;;;;;4.35;4.03;;;-2.40;57.60;;;;;;5106556;27;20600;-58
2022/03/13 02:56:26;;;;;;;4.93;4.50;;;-2.50;58.10;;;;;;5106647;27;20537;-58
2022/03/13 02:59:06;;;;;;;4.13;2.95;;;-2.60;58.30;;;;;;5106416;27;20546;-59
2022/03/13 03:01:46;;;;;;;4.45;4.05;;;-2.70;58.50;;;;;;5106354;27;20674;-58
2022/03/13 03:04:26;;;;;;;3.65;3.35;;;-2.70;58.70;;;;;;5126728;27;20595;-58
2022/03/13 03:07:06;;;;;;;3.92;3.60;;;-2.70;58.80;;;;;;5085849;28;20707;-58
2022/03/13 03:09:45;;;;;;;4.25;3.95;;;-2.70;59.20;;;;;;5084988;27;20543;-58
2022/03/13 03:12:25;;;;;;;4.60;4.07;;;-2.90;59.40;;;;;;5085921;28;20636;-58
2022/03/13 03:15:06;;;;;;;4.93;3.83;;;-3.00;60.20;;;;;;5086242;28;20656;-58
2022/03/13 03:17:45;;;;;;;4.97;3.80;;;-2.80;59.90;;;;;;5106184;27;20558;-59
2022/03/13 03:20:25;;;;;;;4.35;3.95;;;-2.80;59.90;;;;;;5085969;28;20986;-58
2022/03/13 03:23:05;;;;;;;3.97;3.60;;;-2.70;59.70;;;;;;5086005;27;20567;-58
2022/03/13 03:25:45;;;;;;;3.97;3.60;;;-2.60;59.40;;;;;;5085853;27;21084;-59
2022/03/13 03:28:24;;;;;;;4.43;4.05;;;-2.60;59.20;;;;;;5106259;27;20541;-58
2022/03/13 03:31:04;;;;;;;3.65;3.35;;;-2.50;59.10;;;;;;5085574;27;20543;-58
2022/03/13 03:33:44;;;;;;;4.90;3.83;;;-2.40;58.70;;;;;;5126996;27;20536;-58
2022/03/13 03:36:24;;;;;;;3.90;3.60;;;-2.30;58.80;;;;;;5085857;28;21015;-58
2022/03/13 03:39:03;;;;;;;4.63;4.22;;;-2.30;58.40;;;;;;5086045;28;20671;-59
2022/03/13 03:41:44;;;;;;;6.50;3.75;;;-2.30;58.40;;;;;;5126617;27;20543;-59
2022/03/13 03:44:25;;;;;;;4.78;4.28;;;-2.30;58.30;;;;;;5106659;27;20530;-58
2022/03/13 03:47:05;;;;;;;4.50;4.10;;;-2.30;58.70;;;;;;5086209;28;20679;-58
2022/03/13 03:49:44;;;;;;;4.43;4.03;;;-2.30;58.90;;;;;;5085854;28;20664;-58
2022/03/13 03:52:24;;;;;;;6.47;4.00;;;-2.40;58.80;;;;;;5147462;27;20523;-58
2022/03/13 03:55:04;;;;;;;4.00;3.63;;;-2.50;58.90;;;;;;5086093;28;20663;-58
2022/03/13 03:57:45;;;;;;;3.80;3.47;;;-2.60;59.50;;;;;;5126777;27;20567;-59
2022/03/13 04:00:26;;;;;;;4.80;4.40;;;-2.70;59.60;;;;;;5085807;28;20652;-59
2022/03/13 04:03:07;;;;;;;4.75;4.18;;;-2.60;59.40;;;;;;5126646;27;20536;-59
2022/03/13 04:05:47;;;;;;;6.07;4.00;;;-2.60;59.30;;;;;;5086037;28;20656;-59
2022/03/13 04:08:29;;;;;;;4.30;3.90;;;-2.60;60.20;;;;;;5085929;28;20676;-58
2022/03/13 04:11:08;;;;;;;5.00;4.25;;;-2.70;60.40;;;;;;5085545;27;20588;-57
2022/03/13 04:13:48;;;;;;;5.40;3.95;;;-2.90;61.00;;;;;;5086111;27;21129;-58
2022/03/13 04:16:27;;;;;;;4.50;4.10;;;-3.00;61.50;;;;;;5148026;27;20558;-59
2022/03/13 04:19:09;;;;;;;4.68;4.28;;;-2.90;60.90;;;;;;5148100;27;20851;-58
2022/03/13 04:21:49;;;;;;;4.57;4.20;;;-2.90;61.60;;;;;;5086330;27;20679;-59
2022/03/13 04:24:30;;;;;;;4.22;3.83;;;-2.90;62.30;;;;;;5086482;28;20659;-59
2022/03/13 04:27:10;;;;;;;4.75;4.28;;;-3.00;62.50;;;;;;5086410;28;20547;-58
2022/03/13 04:29:50;;;;;;;4.78;4.22;;;-3.10;63.30;;;;;;5106224;27;20653;-59
2022/03/13 04:32:30;;;;;;;4.85;3.70;;;-3.10;63.80;;;;;;5107141;27;21054;-58
2022/03/13 04:35:10;;;;;;;4.85;4.35;;;-3.20;64.10;;;;;;5127593;27;20532;-59
2022/03/13 04:37:49;;;;;;;4.60;3.65;;;-3.20;64.80;;;;;;5106908;27;20985;-58
2022/03/13 04:40:29;;;;;;;5.30;4.03;;;-3.20;65.30;;;;;;5086456;27;20536;-58
2022/03/13 04:43:09;;;;;;;4.53;4.05;;;-3.10;64.70;;;;;;5086680;27;21080;-60
2022/03/13 04:45:49;;;;;;;4.95;4.45;;;-3.00;64.40;;;;;;5086728;28;20551;-58
2022/03/13 04:48:30;;;;;;;5.50;4.95;;;-2.90;63.20;;;;;;5086715;28;20679;-57
2022/03/13 04:51:10;;;;;;;4.10;3.80;;;-2.80;63.90;;;;;;5127454;27;20540;-58
2022/03/13 04:53:50;;;;;;;4.90;4.40;;;-2.80;63.00;;;;;;5086964;27;20683;-59
2022/03/13 04:56:29;;;;;;;4.55;4.15;;;-2.90;63.80;;;;;;5107086;27;20546;-58
2022/03/13 04:59:09;;;;;;;6.45;5.05;;;-2.90;63.70;;;;;;5147694;27;20538;-58
2022/03/13 05:01:52;;;;;;;4.55;4.15;;;-3.00;64.40;;;;;;5086353;27;20539;-59
2022/03/13 05:04:32;;;;;;;4.90;4.43;;;-3.00;64.60;;;;;;5086151;27;20579;-58
2022/03/13 05:07:12;;;;;;;5.68;4.75;;;-3.10;64.80;;;;;;5086057;27;20629;-58
2022/03/13 05:09:52;;;;;;;6.13;4.20;;;-3.00;65.60;;;;;;5146797;27;20543;-58
2022/03/13 05:12:32;;;;;;;5.20;4.47;;;-2.90;64.90;;;;;;5086153;27;20559;-59
2022/03/13 05:15:12;;;;;;;4.70;4.30;;;-3.00;64.80;;;;;;5147185;27;20653;-58
2022/03/13 05:17:51;;;;;;;4.18;3.78;;;-3.10;65.00;;;;;;5106420;27;20701;-58
2022/03/13 05:20:35;;;;;;;4.60;4.20;;;-3.00;66.00;;;;;;5126960;27;20540;-59
2022/03/13 05:23:14;;;;;;;5.38;4.68;;;-3.20;65.70;;;;;;5106520;27;20554;-58
2022/03/13 05:25:54;;;;;;;5.00;4.43;;;-3.20;66.20;;;;;;5147752;27;20665;-58
2022/03/13 05:28:35;;;;;;;4.68;4.28;;;-3.20;66.80;;;;;;5167542;27;20663;-58
2022/03/13 05:31:15;;;;;;;5.63;4.38;;;-3.20;67.60;;;;;;5085986;27;20532;-58
2022/03/13 05:33:55;;;;;;;4.35;3.75;;;-3.10;67.50;;;;;;5106200;27;20561;-59
2022/03/13 05:36:35;;;;;;;4.45;4.05;;;-3.00;66.30;;;;;;5145960;27;20565;-58
2022/03/13 05:39:15;;;;;;;5.03;4.53;;;-3.00;66.90;;;;;;5147237;27;20657;-58
2022/03/13 05:41:59;;;;;;;6.35;4.20;;;-3.10;67.10;;;;;;5085656;28;20671;-58
2022/03/13 05:44:38;;;;;;;4.95;4.45;;;-3.00;66.40;;;;;;5085641;27;20577;-58
2022/03/13 05:47:18;;;;;;;4.90;4.40;;;-3.10;66.80;;;;;;5078945;27;20605;-58
2022/03/13 05:50:00;;;;;;;4.45;4.05;;;-3.10;66.90;;;;;;5104329;27;20546;-59
2022/03/13 05:52:41;;;;;;;4.85;4.45;;;-3.10;67.30;;;;;;5126617;27;20524;-59
2022/03/13 05:55:20;;;;;;;5.22;4.57;;;-3.00;67.20;;;;;;5086527;28;20675;-58
2022/03/13 05:58:01;;;;;;;6.28;4.13;;;-2.90;65.90;;;;;;5086120;28;20688;-58
2022/03/13 06:00:42;;;;;;;4.53;4.10;;;-2.70;66.40;;;;;;5104930;27;20549;-58
2022/03/13 06:03:22;;;;;;;5.38;4.38;;;-2.60;65.40;;;;;;5081312;28;20679;-58
2022/03/13 06:06:02;;;;;;;4.28;3.88;;;-2.60;65.50;;;;;;5144710;27;20676;-58
2022/03/13 06:08:41;;;;;;;5.05;4.55;;;-2.60;66.10;;;;;;5120616;27;20540;-57
2022/03/13 06:11:21;;;;;;;6.30;3.95;;;-2.60;67.10;;;;;;5084728;28;20683;-59
2022/03/13 06:14:01;;;;;;;5.53;5.03;;;-2.60;65.20;;;;;;5085019;28;21189;-58
2022/03/13 06:16:40;;;;;;;6.05;5.20;;;-2.40;64.40;;;;;;5102070;27;20570;-58
2022/03/13 06:19:20;;;;;;;4.97;4.57;;;-2.30;64.30;;;;;;5084065;28;20674;-59
2022/03/13 06:22:00;;;;;;;5.22;4.70;;;-2.20;64.40;;;;;;5106079;27;20549;-58
2022/03/13 06:24:40;;;;;;;4.45;4.05;;;-2.20;64.50;;;;;;5146674;27;20673;-58
2022/03/13 06:27:21;;;;;;;5.68;5.07;;;-2.20;64.50;;;;;;5092894;27;20559;-58
2022/03/13 06:30:02;;;;;;;4.53;4.07;;;-2.20;64.40;;;;;;5103317;27;21106;-59
2022/03/13 06:32:44;;;;;;;5.43;4.93;;;-2.10;64.70;;;;;;5124239;27;20544;-59
2022/03/13 06:35:25;;;;;;;9.18;5.13;;;-2.00;63.90;;;;;;5084699;27;20581;-59
2022/03/13 06:38:04;;;;;;;5.03;4.53;;;-2.00;63.50;;;;;;5095259;27;20555;-58
2022/03/13 06:40:44;;;;;;;4.85;4.35;;;-1.90;63.30;;;;;;5121307;27;21094;-58
2022/03/13 06:43:23;;;;;;;4.60;4.03;;;-1.80;62.90;;;;;;5085155;27;20577;-58
2022/03/13 06:46:04;;;;;;;4.88;4.47;;;-1.60;61.60;;;;;;5125114;27;20841;-58
2022/03/13 06:48:43;;;;;;;4.30;3.92;;;-1.40;61.10;;;;;;5125754;27;20913;-58
2022/03/13 06:51:23;;;;;;;4.30;3.90;;;-1.30;60.50;;;;;;5141873;27;20555;-58
2022/03/13 06:54:03;;;;;;;5.75;4.43;;;-1.20;60.30;;;;;;5147835;27;20539;-57
2022/03/13 06:56:43;;;;;;;4.70;4.30;;;-1.10;59.90;;;;;;5104468;27;20767;-59
2022/03/13 06:59:22;;;;;;;4.88;4.45;;;-1.10;59.10;;;;;;5104844;27;20677;-59
2022/03/13 07:02:02;;;;;;;4.55;4.15;;;-1.00;59.10;;;;;;5085311;28;20667;-58
2022/03/13 07:04:42;;;;;;;5.60;5.07;;;-0.80;58.70;;;;;;5084238;28;21024;-58
2022/03/13 07:07:22;;;;;;;6.65;5.13;;;-0.70;59.10;;;;;;5073784;27;21093;-58
2022/03/13 07:10:02;;;;;;;6.07;4.72;;;-0.60;59.20;;;;;;5145878;27;20681;-58
2022/03/13 07:12:44;;;;;;;5.05;4.20;;;-0.50;58.70;;;;;;5084679;28;20672;-58
2022/03/13 07:15:23;;;;;;;4.88;4.30;;;-0.50;57.60;;;;;;5103728;27;20549;-59
2022/03/13 07:18:03;;;;;;;5.30;4.90;;;-0.40;57.90;;;;;;5111070;27;20713;-58
2022/03/13 07:20:42;;;;;;;5.55;5.05;;;-0.40;57.80;;;;;;5105422;27;20701;-58
2022/03/13 07:23:23;;;;;;;5.18;4.68;;;-0.40;57.70;;;;;;5085655;27;20571;-59
2022/03/13 07:26:03;;;;;;;4.78;4.28;;;-0.30;57.70;;;;;;5105666;27;20537;-58
2022/03/13 07:28:42;;;;;;;4.22;3.83;;;-0.10;56.70;;;;;;5125253;27;20544;-59
2022/03/13 07:31:22;;;;;;;4.85;4.53;;;-0.10;56.90;;;;;;5084763;28;20671;-58
2022/03/13 07:34:02;;;;;;;5.40;4.90;;;0.00;57.40;;;;;;5084871;27;20543;-58
2022/03/13 07:36:41;;;;;;;5.53;5.10;;;0.10;56.90;;;;;;5101174;27;20961;-58
2022/03/13 07:39:22;;;;;;;5.45;4.95;;;0.20;57.00;;;;;;5122313;27;20537;-58
2022/03/13 07:42:02;;;;;;;4.90;4.50;;;0.20;56.70;;;;;;5122774;27;20971;-59
2022/03/13 07:44:41;;;;;;;5.60;5.10;;;0.30;56.40;;;;;;5147126;27;20554;-58
2022/03/13 07:47:21;;;;;;;5.25;4.75;;;0.40;57.00;;;;;;5146139;27;20547;-58
2022/03/13 07:50:01;;;;;;;4.50;4.07;;;0.50;56.20;;;;;;5152513;27;20554;-58
2022/03/13 07:52:40;;;;;;;5.80;5.22;;;0.50;55.50;;;;;;5144421;27;20542;-58
2022/03/13 07:55:21;;;;;;;5.28;4.78;;;0.70;55.70;;;;;;5103484;27;20658;-58
2022/03/13 07:58:00;;;;;;;6.53;5.93;;;0.70;55.80;;;;;;5083603;28;20664;-58
2022/03/13 08:00:40;;;;;;;5.53;4.35;;;0.80;55.10;;;;;;5124237;27;20660;-58
2022/03/13 08:03:28;;;;;;;6.43;5.82;;;0.80;54.60;;;;;;5084755;27;20531;-58
2022/03/13 08:06:08;;;;;;;5.47;4.97;;;0.90;54.50;;;;;;5104727;27;20685;-58
2022/03/13 08:08:47;;;;;;;5.68;5.18;;;1.00;54.70;;;;;;5126929;27;21181;-58
2022/03/13 08:11:27;;;;;;;5.18;4.70;;;1.00;54.20;;;;;;5106135;27;20650;-58
2022/03/13 08:14:08;;;;;;;5.07;4.57;;;1.10;54.20;;;;;;5086017;28;20962;-58
2022/03/13 08:16:47;;;;;;;5.07;4.65;;;1.20;53.60;;;;;;5147315;27;20550;-59
2022/03/13 08:19:27;;;;;;;5.32;4.90;;;1.30;53.60;;;;;;5105879;27;20964;-58
2022/03/13 08:22:07;;;;;;;6.57;6.00;;;1.30;55.00;;;;;;5085738;27;20614;-58
2022/03/13 08:24:46;;;;;;;5.25;4.78;;;1.40;53.40;;;;;;5106151;27;20942;-58
2022/03/13 08:27:26;;;;;;;5.10;4.60;;;1.50;53.80;;;;;;5106286;27;20669;-58
2022/03/13 08:30:09;;;;;;;5.13;4.63;;;1.50;54.30;;;;;;5106334;27;20562;-58
2022/03/13 08:32:48;;;;;;;5.47;4.65;;;1.70;54.00;;;;;;5086049;27;21076;-58
2022/03/13 08:35:28;;;;;;;5.65;5.05;;;1.80;53.80;;;;;;5085753;27;20556;-58
2022/03/13 08:38:07;;;;;;;5.80;5.20;;;1.90;53.70;;;;;;5126688;27;20667;-58
2022/03/13 08:40:47;;;;;;;5.25;4.75;;;2.00;52.50;;;;;;5106120;27;20573;-58
2022/03/13 08:43:27;;;;;;;4.88;4.43;;;2.00;51.60;;;;;;5106226;27;20571;-58
2022/03/13 08:46:07;;;;;;;6.88;5.00;;;2.00;51.60;;;;;;5106326;27;20658;-58
2022/03/13 08:48:46;;;;;;;4.95;4.53;;;2.00;52.20;;;;;;5086020;28;20531;-58
2022/03/13 08:51:27;;;;;;;6.13;4.97;;;2.00;52.80;;;;;;5085764;27;20675;-57
2022/03/13 08:54:08;;;;;;;5.95;5.35;;;2.20;51.90;;;;;;5147750;27;20527;-58
2022/03/13 08:56:48;;;;;;;6.88;4.93;;;2.20;51.60;;;;;;5086230;28;20680;-58
2022/03/13 08:59:28;;;;;;;5.15;4.65;;;2.30;51.30;;;;;;5146441;27;20680;-58
2022/03/13 09:02:09;;;;;;;6.15;5.55;;;2.30;50.90;;;;;;5085991;28;20664;-58
2022/03/13 09:04:49;;;;;;;6.43;5.82;;;2.40;51.30;;;;;;5098806;27;20674;-58
2022/03/13 09:07:28;;;;;;;5.60;5.10;;;2.50;51.10;;;;;;5144516;27;20696;-58
2022/03/13 09:10:09;;;;;;;5.90;5.40;;;2.60;51.50;;;;;;5079790;27;20711;-58
2022/03/13 09:12:48;;;;;;;7.13;6.53;;;2.60;51.70;;;;;;5084956;27;20552;-58
2022/03/13 09:15:28;;;;;;;7.97;5.15;;;2.70;51.30;;;;;;5146495;27;20625;-58
2022/03/13 09:18:08;;;;;;;5.28;4.88;;;2.80;50.10;;;;;;5088911;27;20613;-56
2022/03/13 09:20:48;;;;;;;6.18;5.07;;;2.90;51.10;;;;;;5125263;27;20707;-58
2022/03/13 09:23:28;;;;;;;6.50;6.00;;;3.00;50.80;;;;;;5103728;27;20670;-58
2022/03/13 09:26:08;;;;;;;5.82;5.35;;;3.10;50.10;;;;;;5105672;27;20546;-58
2022/03/13 09:28:47;;;;;;;5.63;5.13;;;3.20;50.40;;;;;;5104795;27;20677;-58
2022/03/13 09:31:27;;;;;;;5.65;4.47;;;3.30;49.80;;;;;;5084682;27;20675;-58
2022/03/13 09:34:07;;;;;;;6.05;4.88;;;3.30;50.00;;;;;;5085523;28;20674;-57
2022/03/13 09:36:47;;;;;;;5.13;4.72;;;3.30;49.10;;;;;;5080665;27;20630;-58
2022/03/13 09:39:29;;;;;;;5.00;4.55;;;3.30;49.30;;;;;;5112329;27;20575;-58
2022/03/13 09:42:09;;;;;;;5.03;4.63;;;3.40;50.00;;;;;;5120375;27;21043;-58
2022/03/13 09:44:49;;;;;;;7.57;4.68;;;3.60;49.40;;;;;;5084721;28;21135;-58
2022/03/13 09:47:29;;;;;;;4.93;4.45;;;3.60;48.90;;;;;;5094169;27;20551;-57
2022/03/13 09:50:12;;;;;;;5.53;4.97;;;3.60;48.80;;;;;;5080478;28;20700;-58
2022/03/13 09:52:52;;;;;;;5.25;4.85;;;3.60;49.10;;;;;;5105503;27;20673;-57
2022/03/13 09:55:32;;;;;;;5.25;4.75;;;3.80;48.50;;;;;;5149905;27;20535;-58
2022/03/13 09:58:12;;;;;;;5.40;4.97;;;3.90;47.60;;;;;;5104615;27;20581;-58
2022/03/13 10:00:51;;;;;;;7.18;4.75;;;3.90;47.70;;;;;;5147569;27;21155;-58
2022/03/13 10:03:31;;;;;;;7.07;5.32;;;3.90;47.70;;;;;;5085123;27;21227;-58
2022/03/13 10:06:11;;;;;;;6.00;5.45;;;3.90;46.90;;;;;;5105064;27;20662;-58
2022/03/13 10:08:51;;;;;;;5.95;5.45;;;4.00;48.00;;;;;;5083196;28;20684;-58
2022/03/13 10:11:35;;;;;;;5.10;4.70;;;4.20;48.70;;;;;;5084198;27;20565;-57
2022/03/13 10:14:14;;;;;;;5.85;5.32;;;4.40;48.40;;;;;;5087551;27;20582;-58
2022/03/13 10:16:54;;;;;;;5.03;4.63;;;4.50;48.10;;;;;;5119748;27;20561;-58
2022/03/13 10:19:33;;;;;;;6.05;5.55;;;4.50;48.20;;;;;;5104002;27;20538;-58
2022/03/13 10:22:13;;;;;;;5.97;5.47;;;4.60;47.50;;;;;;5084296;28;20664;-58
2022/03/13 10:24:53;;;;;;;5.80;5.30;;;4.70;48.00;;;;;;5085404;28;20668;-58
2022/03/13 10:27:34;;;;;;;6.03;5.53;;;4.80;47.60;;;;;;5121942;27;20572;-58
2022/03/13 10:30:17;;;;;;;8.90;6.15;;;4.90;47.70;;;;;;5104190;27;20557;-57
2022/03/13 10:32:58;;;;;;;4.68;4.28;;;5.00;48.80;;;;;;5118758;27;20686;-58
2022/03/13 10:35:37;;;;;;;4.80;4.40;;;5.10;48.30;;;;;;5085109;27;20808;-57
2022/03/13 10:38:19;;;;;;;5.35;4.90;;;5.20;47.60;;;;;;5082656;28;20690;-58
2022/03/13 10:41:12;;;;;;;6.05;4.65;;;5.30;47.10;;;;;;5105256;27;20537;-58
2022/03/13 10:43:58;;;;;;;4.85;4.43;;;5.50;46.60;;;;;;5115179;27;20855;-58
2022/03/13 10:46:39;;;;;;;4.85;4.38;;;5.50;46.00;;;;;;5067744;27;20583;-58
2022/03/13 10:49:37;;;;;;;5.72;4.30;;;5.60;46.70;;;;;;5124256;27;20663;-58
2022/03/13 10:52:29;;;;;;;5.50;5.00;;;5.60;45.20;;;;;;5146411;27;20665;-58
2022/03/13 10:55:24;;;;;;;5.30;4.88;;;5.70;44.90;;;;;;5146915;27;21103;-57
2022/03/13 10:58:03;;;;;;;4.63;4.28;;;5.70;44.30;;;;;;5085509;27;20918;-58
2022/03/13 11:01:01;;;;;;;5.70;5.20;;;5.80;44.90;;;;;;5104397;27;20553;-58
2022/03/13 11:03:49;;;;;;;5.28;4.80;;;5.90;45.30;;;;;;5086115;27;20680;-58
2022/03/13 11:06:29;;;;;;;5.20;4.70;;;6.10;44.30;;;;;;5082314;27;20587;-58
2022/03/13 11:09:09;;;;;;;5.20;4.72;;;6.10;44.50;;;;;;5085501;27;20908;-58
2022/03/13 11:11:50;;;;;;;5.20;4.75;;;6.20;43.90;;;;;;5105847;27;20662;-58
2022/03/13 11:14:32;;;;;;;5.13;4.70;;;6.30;44.10;;;;;;5107061;27;20662;-57
2022/03/13 11:17:12;;;;;;;5.80;5.30;;;6.30;43.60;;;;;;5147196;27;20550;-58
2022/03/13 11:19:52;;;;;;;5.57;5.07;;;6.30;43.60;;;;;;5126559;27;20536;-58
2022/03/13 11:22:33;;;;;;;5.68;5.18;;;6.40;44.10;;;;;;5085775;28;21020;-58
2022/03/13 11:25:12;;;;;;;5.95;5.45;;;6.50;43.30;;;;;;5085995;27;21100;-58
2022/03/13 11:27:53;;;;;;;5.38;4.88;;;6.60;43.00;;;;;;5105742;27;20689;-58
2022/03/13 11:30:35;;;;;;;5.18;4.80;;;6.70;43.90;;;;;;5085402;27;20539;-58
2022/03/13 11:33:31;;;;;;;5.75;5.13;;;6.80;43.40;;;;;;5106356;27;20538;-58
2022/03/13 11:36:31;;;;;;;4.55;4.10;;;6.90;43.90;;;;;;5086088;27;20546;-58
2022/03/13 11:39:14;;;;;;;5.00;4.60;;;7.00;43.20;;;;;;5085891;27;20548;-57
2022/03/13 11:41:55;;;;;;;4.88;4.38;;;7.00;42.40;;;;;;5148021;27;20649;-58
2022/03/13 11:44:43;;;;;;;5.65;5.15;;;7.00;43.70;;;;;;5126690;27;20657;-57
2022/03/13 11:47:33;;;;;;;6.63;5.00;;;7.10;43.50;;;;;;5086444;28;20672;-58
2022/03/13 11:50:17;;;;;;;5.35;4.85;;;7.20;43.10;;;;;;5085387;28;20625;-58
2022/03/13 11:53:18;;;;;;;5.38;4.95;;;7.30;43.30;;;;;;5106340;27;20603;-57
2022/03/13 11:56:10;;;;;;;6.60;5.40;;;7.30;42.20;;;;;;5126799;27;21206;-57
2022/03/13 11:58:51;;;;;;;5.68;5.07;;;7.40;44.20;;;;;;5085845;28;20680;-58
2022/03/13 12:01:38;;;;;;;5.43;5.03;;;7.50;43.20;;;;;;5085603;27;20583;-57
2022/03/13 12:04:27;;;;;;;5.38;4.97;;;7.60;43.30;;;;;;5127268;27;20543;-58
2022/03/13 12:07:27;;;;;;;6.15;5.55;;;7.60;43.10;;;;;;5085910;27;20559;-58
2022/03/13 12:10:30;;;;;;;5.25;4.80;;;7.70;42.10;;;;;;5106247;27;20677;-57
2022/03/13 12:13:10;;;;;;;5.53;5.03;;;7.80;43.30;;;;;;5126820;27;20605;-57
2022/03/13 12:15:51;;;;;;;8.05;5.28;;;7.90;43.60;;;;;;5117836;27;20582;-58
2022/03/13 12:18:32;;;;;;;5.85;5.30;;;8.00;43.50;;;;;;5126008;27;20929;-57
2022/03/13 12:21:12;;;;;;;4.95;4.55;;;8.00;41.80;;;;;;5085541;27;20571;-58
2022/03/13 12:23:52;;;;;;;5.93;5.32;;;8.00;42.60;;;;;;5084623;28;20462;-57
2022/03/13 12:26:33;;;;;;;5.38;4.88;;;8.10;49.60;;;;;;5105750;27;20530;-58
2022/03/13 12:29:16;;;;;;;6.05;5.55;;;8.30;44.10;;;;;;5146997;27;20546;-58
2022/03/13 12:31:57;;;;;;;5.43;4.93;;;8.30;41.80;;;;;;5106874;27;20545;-57
2022/03/13 12:34:36;;;;;;;5.63;5.13;;;8.20;43.00;;;;;;5146989;27;20561;-58
2022/03/13 12:37:16;;;;;;;5.68;5.10;;;8.30;41.70;;;;;;5145998;27;20551;-58
2022/03/13 12:39:59;;;;;;;6.47;5.32;;;8.30;41.70;;;;;;5084371;27;20535;-58
2022/03/13 12:42:38;;;;;;;6.90;5.40;;;8.30;41.30;;;;;;5086381;28;21072;-58
2022/03/13 12:45:18;;;;;;;5.72;5.25;;;8.40;42.00;;;;;;5126952;27;20540;-58
2022/03/13 12:48:03;;;;;;;5.82;4.47;;;8.40;42.70;;;;;;5071249;27;20839;-58
2022/03/13 12:50:47;;;;;;;5.70;4.97;;;8.60;42.00;;;;;;5153871;27;20662;-58
2022/03/13 12:53:26;;;;;;;5.70;5.20;;;8.60;41.20;;;;;;5124989;27;20547;-58
2022/03/13 12:56:06;;;;;;;5.60;5.10;;;8.60;41.20;;;;;;5145883;27;20658;-58
2022/03/13 12:58:45;;;;;;;5.50;5.00;;;8.60;41.00;;;;;;5104257;27;20538;-58
2022/03/13 13:01:25;;;;;;;6.28;5.78;;;8.70;40.60;;;;;;5104473;27;20650;-58
2022/03/13 13:04:05;;;;;;;8.35;5.40;;;8.70;40.80;;;;;;5124938;27;20552;-58
2022/03/13 13:06:51;;;;;;;6.05;5.55;;;8.70;40.50;;;;;;5146637;27;20585;-58
2022/03/13 13:09:31;;;;;;;6.07;5.50;;;8.70;40.10;;;;;;5085487;28;21201;-58
2022/03/13 13:12:12;;;;;;;5.80;5.30;;;8.70;40.60;;;;;;5086078;27;20566;-58
2022/03/13 13:14:53;;;;;;;5.43;4.93;;;8.70;40.60;;;;;;5086049;27;20573;-58
2022/03/13 13:17:33;;;;;;;5.95;5.35;;;8.70;39.90;;;;;;5126731;27;20671;-58
2022/03/13 13:20:22;;;;;;;7.00;5.72;;;8.80;40.20;;;;;;5105902;27;20558;-58
2022/03/13 13:23:10;;;;;;;5.82;5.07;;;8.70;40.10;;;;;;5086016;27;20532;-58
2022/03/13 13:25:51;;;;;;;5.70;5.20;;;8.70;40.60;;;;;;5147212;27;21083;-58
2022/03/13 13:28:31;;;;;;;5.95;5.50;;;8.70;41.00;;;;;;5106201;27;20574;-58
2022/03/13 13:31:14;;;;;;;6.00;5.50;;;8.80;40.90;;;;;;5105795;27;20550;-58
2022/03/13 13:33:54;;;;;;;6.03;5.28;;;8.80;41.40;;;;;;5106453;27;20530;-58
2022/03/13 13:36:33;;;;;;;5.82;5.32;;;8.80;41.20;;;;;;5086098;28;20676;-58
2022/03/13 13:39:13;;;;;;;5.38;4.97;;;8.80;40.70;;;;;;5106094;27;21191;-57
2022/03/13 13:41:58;;;;;;;5.72;5.22;;;8.80;39.40;;;;;;5147455;27;20667;-58
2022/03/13 13:44:38;;;;;;;5.43;4.95;;;8.90;40.30;;;;;;5106402;27;20666;-58
2022/03/13 13:47:25;;;;;;;5.93;5.43;;;8.90;39.60;;;;;;5156950;27;20663;-58
2022/03/13 13:50:15;;;;;;;6.28;5.78;;;8.80;40.30;;;;;;5147250;27;20534;-58
2022/03/13 13:53:02;;;;;;;5.35;4.95;;;8.80;39.90;;;;;;5106270;27;20661;-58
2022/03/13 13:55:41;;;;;;;6.32;5.82;;;8.80;39.80;;;;;;5106422;27;21221;-57
2022/03/13 13:58:29;;;;;;;6.13;5.63;;;8.80;40.30;;;;;;5106106;27;20553;-58
2022/03/13 14:01:23;;;;;;;5.97;5.45;;;8.80;40.70;;;;;;5126541;27;20663;-58
2022/03/13 14:04:03;;;;;;;6.40;5.90;;;8.80;41.80;;;;;;5085915;27;20676;-58